createdAt,value
2017-04-13T00:00:32.901Z,0
2017-04-13T00:01:13.788Z,0
2017-04-13T00:01:54.665Z,0
2017-04-13T00:02:35.546Z,0
2017-04-13T00:03:16.425Z,0
2017-04-13T00:03:57.313Z,0
2017-04-13T00:04:38.193Z,0
2017-04-13T00:05:19.073Z,0
2017-04-13T00:05:59.932Z,0
2017-04-13T00:06:40.862Z,0
2017-04-13T00:07:21.692Z,0
2017-04-13T00:08:02.576Z,0
2017-04-13T00:08:43.442Z,0
2017-04-13T00:09:24.323Z,0
2017-04-13T00:10:05.209Z,0
2017-04-13T00:10:46.111Z,0
2017-04-13T00:11:26.972Z,0
2017-04-13T00:12:07.848Z,0
2017-04-13T00:12:48.741Z,0
2017-04-13T00:13:29.623Z,0
2017-04-13T00:14:10.504Z,0
2017-04-13T00:14:51.390Z,0
2017-04-13T00:15:32.271Z,0
2017-04-13T00:16:13.150Z,0
2017-04-13T00:16:54.053Z,0
2017-04-13T00:17:34.897Z,0
2017-04-13T00:18:15.781Z,0
2017-04-13T00:18:56.661Z,0
2017-04-13T00:19:37.542Z,0
2017-04-13T00:20:18.423Z,0
2017-04-13T00:20:59.315Z,0
2017-04-13T00:21:40.201Z,0
2017-04-13T00:22:21.084Z,0
2017-04-13T00:23:01.965Z,0
2017-04-13T00:23:42.847Z,0
2017-04-13T00:24:23.722Z,0
2017-04-13T00:25:04.588Z,0
2017-04-13T00:25:45.467Z,0
2017-04-13T00:26:26.349Z,0
2017-04-13T00:27:07.225Z,0
2017-04-13T00:27:48.104Z,0
2017-04-13T00:28:28.981Z,0
2017-04-13T00:29:09.864Z,0
2017-04-13T00:29:50.753Z,0
2017-04-13T00:30:31.652Z,0
2017-04-13T00:31:12.523Z,0
2017-04-13T00:31:53.405Z,0
2017-04-13T00:32:34.285Z,0
2017-04-13T00:33:15.163Z,0
2017-04-13T00:33:56.050Z,0
2017-04-13T00:34:36.937Z,0
2017-04-13T00:35:17.817Z,0
2017-04-13T00:35:58.720Z,0
2017-04-13T00:36:39.605Z,0
2017-04-13T00:37:20.487Z,0
2017-04-13T00:38:01.370Z,0
2017-04-13T00:38:42.248Z,0
2017-04-13T00:39:23.123Z,0
2017-04-13T00:40:03.994Z,0
2017-04-13T00:40:44.859Z,0
2017-04-13T00:41:25.755Z,0
2017-04-13T00:42:06.623Z,0
2017-04-13T00:42:47.504Z,0
2017-04-13T00:43:28.384Z,0
2017-04-13T00:44:09.269Z,0
2017-04-13T00:44:50.147Z,0
2017-04-13T00:45:31.028Z,0
2017-04-13T00:46:11.901Z,0
2017-04-13T00:46:52.779Z,0
2017-04-13T00:47:33.663Z,0
2017-04-13T00:48:14.546Z,0
2017-04-13T00:48:55.425Z,0
2017-04-13T00:49:36.308Z,0
2017-04-13T00:50:17.193Z,0
2017-04-13T00:50:58.079Z,0
2017-04-13T00:51:38.961Z,0
2017-04-13T00:52:19.838Z,0
2017-04-13T00:53:00.705Z,0
2017-04-13T00:53:41.585Z,0
2017-04-13T00:54:22.469Z,0
2017-04-13T00:55:03.343Z,0
2017-04-13T00:55:44.220Z,0
2017-04-13T00:56:25.097Z,0
2017-04-13T00:57:05.980Z,0
2017-04-13T00:57:46.860Z,0
2017-04-13T00:58:27.745Z,0
2017-04-13T00:59:08.600Z,0
2017-04-13T00:59:49.478Z,0
2017-04-13T01:00:30.358Z,0
2017-04-13T01:01:11.234Z,0
2017-04-13T01:01:52.116Z,0
2017-04-13T01:02:32.993Z,0
2017-04-13T01:03:13.874Z,0
2017-04-13T01:03:54.752Z,0
2017-04-13T01:04:35.630Z,0
2017-04-13T01:05:16.511Z,0
2017-04-13T01:05:57.390Z,0
2017-04-13T01:06:38.258Z,0
2017-04-13T01:07:19.144Z,0
2017-04-13T01:08:00.011Z,0
2017-04-13T01:08:40.890Z,0
2017-04-13T01:09:21.770Z,0
2017-04-13T01:10:02.643Z,0
2017-04-13T01:10:43.530Z,0
2017-04-13T01:11:24.411Z,0
2017-04-13T01:12:05.286Z,0
2017-04-13T01:12:46.167Z,0
2017-04-13T01:13:27.047Z,0
2017-04-13T01:14:07.922Z,0
2017-04-13T01:14:48.808Z,0
2017-04-13T01:15:29.682Z,0
2017-04-13T01:16:10.563Z,0
2017-04-13T01:16:51.440Z,0
2017-04-13T01:17:32.311Z,0
2017-04-13T01:18:13.188Z,0
2017-04-13T01:18:54.069Z,0
2017-04-13T01:19:34.950Z,0
2017-04-13T01:20:15.834Z,0
2017-04-13T01:20:56.715Z,0
2017-04-13T01:21:37.580Z,0
2017-04-13T01:22:18.455Z,0
2017-04-13T01:22:59.336Z,0
2017-04-13T01:23:40.217Z,0
2017-04-13T01:24:21.104Z,0
2017-04-13T01:25:01.988Z,0
2017-04-13T01:25:42.867Z,0
2017-04-13T01:26:23.744Z,0
2017-04-13T01:27:04.621Z,0
2017-04-13T01:27:45.499Z,0
2017-04-13T01:28:26.380Z,0
2017-04-13T01:29:07.263Z,0
2017-04-13T01:29:48.136Z,0
2017-04-13T01:30:29.074Z,0
2017-04-13T01:32:22.660Z,0
2017-04-13T01:33:03.540Z,0
2017-04-13T01:33:44.462Z,0
2017-04-13T01:35:43.152Z,0
2017-04-13T01:36:24.019Z,0
2017-04-13T01:37:04.891Z,0
2017-04-13T01:37:45.774Z,0
2017-04-13T01:38:26.653Z,0
2017-04-13T01:39:07.534Z,0
2017-04-13T01:39:48.414Z,0
2017-04-13T01:40:29.292Z,0
2017-04-13T01:41:10.166Z,0
2017-04-13T01:41:51.044Z,0
2017-04-13T01:42:31.917Z,0
2017-04-13T01:43:12.788Z,0
2017-04-13T01:43:53.668Z,0
2017-04-13T01:44:34.548Z,0
2017-04-13T01:45:15.418Z,0
2017-04-13T01:45:56.302Z,0
2017-04-13T01:46:37.178Z,0
2017-04-13T01:47:18.061Z,0
2017-04-13T01:47:58.942Z,0
2017-04-13T01:48:39.823Z,0
2017-04-13T01:49:20.703Z,0
2017-04-13T01:50:01.568Z,0
2017-04-13T01:50:42.439Z,0
2017-04-13T01:51:23.310Z,0
2017-04-13T01:52:04.202Z,0
2017-04-13T01:52:45.073Z,0
2017-04-13T01:53:25.951Z,0
2017-04-13T01:54:06.831Z,0
2017-04-13T01:54:47.704Z,0
2017-04-13T01:55:28.583Z,0
2017-04-13T01:56:09.463Z,0
2017-04-13T01:56:50.354Z,0
2017-04-13T01:57:31.225Z,0
2017-04-13T01:58:12.096Z,0
2017-04-13T01:58:52.975Z,0
2017-04-13T01:59:33.863Z,0
2017-04-13T02:00:14.746Z,0
2017-04-13T02:00:55.625Z,0
2017-04-13T02:01:36.505Z,0
2017-04-13T02:02:17.397Z,0
2017-04-13T02:02:58.266Z,0
2017-04-13T02:03:39.151Z,0
2017-04-13T02:04:20.038Z,0
2017-04-13T02:05:00.912Z,0
2017-04-13T02:05:41.791Z,0
2017-04-13T02:06:22.670Z,0
2017-04-13T02:07:03.547Z,0
2017-04-13T02:07:44.413Z,0
2017-04-13T02:08:25.288Z,0
2017-04-13T02:09:06.189Z,0
2017-04-13T02:09:47.057Z,0
2017-04-13T02:10:27.944Z,0
2017-04-13T02:11:08.822Z,0
2017-04-13T02:11:49.704Z,0
2017-04-13T02:12:30.594Z,0
2017-04-13T02:13:11.473Z,0
2017-04-13T02:13:52.354Z,0
2017-04-13T02:14:33.237Z,0
2017-04-13T02:15:14.115Z,0
2017-04-13T02:15:54.995Z,0
2017-04-13T02:16:35.869Z,0
2017-04-13T02:17:16.747Z,0
2017-04-13T02:17:57.630Z,0
2017-04-13T02:18:38.511Z,0
2017-04-13T02:19:19.393Z,0
2017-04-13T02:20:00.267Z,0
2017-04-13T02:20:41.148Z,0
2017-04-13T02:21:22.038Z,0
2017-04-13T02:22:02.903Z,0
2017-04-13T02:22:43.772Z,0
2017-04-13T02:23:24.649Z,0
2017-04-13T02:24:05.524Z,0
2017-04-13T02:24:46.412Z,0
2017-04-13T02:25:27.303Z,0
2017-04-13T02:26:08.185Z,0
2017-04-13T02:26:49.050Z,0
2017-04-13T02:27:29.920Z,0
2017-04-13T02:28:10.801Z,0
2017-04-13T02:28:51.681Z,0
2017-04-13T02:29:32.562Z,0
2017-04-13T02:30:13.440Z,0
2017-04-13T02:30:54.319Z,0
2017-04-13T02:31:35.192Z,0
2017-04-13T02:32:16.074Z,0
2017-04-13T02:32:56.955Z,0
2017-04-13T02:33:37.821Z,0
2017-04-13T02:34:18.701Z,0
2017-04-13T02:34:59.564Z,0
2017-04-13T02:35:40.443Z,0
2017-04-13T02:36:21.326Z,0
2017-04-13T02:37:02.204Z,0
2017-04-13T02:37:43.074Z,0
2017-04-13T02:38:23.947Z,0
2017-04-13T02:39:04.811Z,0
2017-04-13T02:39:45.698Z,0
2017-04-13T02:40:26.577Z,0
2017-04-13T02:41:07.456Z,0
2017-04-13T02:41:48.337Z,0
2017-04-13T02:42:29.222Z,0
2017-04-13T02:43:10.103Z,0
2017-04-13T02:43:50.983Z,0
2017-04-13T02:44:31.860Z,0
2017-04-13T02:45:12.733Z,0
2017-04-13T02:45:53.613Z,0
2017-04-13T02:46:34.499Z,0
2017-04-13T02:47:15.379Z,0
2017-04-13T02:47:56.253Z,0
2017-04-13T02:48:37.121Z,0
2017-04-13T02:49:18.004Z,0
2017-04-13T02:49:58.887Z,0
2017-04-13T02:50:39.767Z,0
2017-04-13T02:51:20.647Z,0
2017-04-13T02:52:01.512Z,0
2017-04-13T02:52:42.396Z,0
2017-04-13T02:53:23.285Z,0
2017-04-13T02:54:04.159Z,0
2017-04-13T02:54:45.046Z,0
2017-04-13T02:55:25.932Z,0
2017-04-13T02:56:06.815Z,0
2017-04-13T02:56:47.691Z,0
2017-04-13T02:57:28.570Z,0
2017-04-13T02:58:09.445Z,0
2017-04-13T02:58:50.326Z,0
2017-04-13T02:59:31.207Z,0
2017-04-13T03:00:12.089Z,0
2017-04-13T03:00:52.963Z,0
2017-04-13T03:01:33.856Z,0
2017-04-13T03:02:14.737Z,0
2017-04-13T03:02:55.617Z,0
2017-04-13T03:03:36.484Z,0
2017-04-13T03:04:17.367Z,0
2017-04-13T03:04:58.243Z,0
2017-04-13T03:05:39.128Z,0
2017-04-13T03:06:20.006Z,0
2017-04-13T03:07:00.881Z,0
2017-04-13T03:07:41.755Z,0
2017-04-13T03:08:22.634Z,0
2017-04-13T03:09:03.512Z,0
2017-04-13T03:09:44.393Z,0
2017-04-13T03:10:25.277Z,0
2017-04-13T03:11:06.159Z,0
2017-04-13T03:11:47.033Z,0
2017-04-13T03:12:27.916Z,0
2017-04-13T03:13:08.803Z,0
2017-04-13T03:13:49.683Z,0
2017-04-13T03:14:30.561Z,0
2017-04-13T03:15:11.449Z,0
2017-04-13T03:15:52.329Z,0
2017-04-13T03:16:33.209Z,0
2017-04-13T03:17:14.081Z,0
2017-04-13T03:17:54.970Z,0
2017-04-13T03:18:35.846Z,0
2017-04-13T03:19:16.722Z,0
2017-04-13T03:19:57.597Z,0
2017-04-13T03:20:38.478Z,0
2017-04-13T03:21:19.353Z,0
2017-04-13T03:22:00.233Z,0
2017-04-13T03:22:41.113Z,0
2017-04-13T03:23:21.990Z,0
2017-04-13T03:24:02.867Z,0
2017-04-13T03:24:43.754Z,0
2017-04-13T03:25:24.630Z,0
2017-04-13T03:26:05.517Z,0
2017-04-13T03:26:46.398Z,0
2017-04-13T03:27:27.283Z,0
2017-04-13T03:28:08.164Z,0
2017-04-13T03:28:49.040Z,0
2017-04-13T03:29:29.925Z,0
2017-04-13T03:30:10.814Z,0
2017-04-13T03:30:51.692Z,0
2017-04-13T03:31:32.577Z,0
2017-04-13T03:32:13.466Z,0
2017-04-13T03:32:54.338Z,0
2017-04-13T03:33:35.232Z,0
2017-04-13T03:34:16.104Z,0
2017-04-13T03:34:56.971Z,0
2017-04-13T03:35:37.847Z,0
2017-04-13T03:36:18.724Z,0
2017-04-13T03:36:59.616Z,0
2017-04-13T03:37:40.495Z,0
2017-04-13T03:38:21.372Z,0
2017-04-13T03:39:02.257Z,0
2017-04-13T03:39:43.146Z,0
2017-04-13T03:40:24.024Z,0
2017-04-13T03:41:04.905Z,0
2017-04-13T03:41:45.787Z,0
2017-04-13T03:42:26.676Z,0
2017-04-13T03:43:07.557Z,0
2017-04-13T03:43:48.438Z,0
2017-04-13T03:44:29.323Z,0
2017-04-13T03:45:10.206Z,0
2017-04-13T03:45:51.088Z,0
2017-04-13T03:46:31.974Z,0
2017-04-13T03:47:12.849Z,0
2017-04-13T03:47:53.720Z,0
2017-04-13T03:48:34.603Z,0
2017-04-13T03:49:15.486Z,0
2017-04-13T03:49:56.367Z,0
2017-04-13T03:50:37.245Z,0
2017-04-13T03:51:18.134Z,0
2017-04-13T03:51:59.021Z,0
2017-04-13T03:52:39.903Z,0
2017-04-13T03:53:20.783Z,0
2017-04-13T03:54:01.663Z,0
2017-04-13T03:54:42.535Z,0
2017-04-13T03:55:23.414Z,0
2017-04-13T03:56:04.290Z,0
2017-04-13T03:56:45.162Z,0
2017-04-13T03:57:26.033Z,0
2017-04-13T03:58:06.920Z,0
2017-04-13T03:58:47.795Z,0
2017-04-13T03:59:28.678Z,0
2017-04-13T04:00:09.552Z,0
2017-04-13T04:00:50.426Z,0
2017-04-13T04:01:31.308Z,0
2017-04-13T04:02:12.190Z,0
2017-04-13T04:02:53.061Z,0
2017-04-13T04:03:33.941Z,0
2017-04-13T04:04:14.832Z,0
2017-04-13T04:04:55.695Z,0
2017-04-13T04:05:36.591Z,0
2017-04-13T04:06:17.477Z,0
2017-04-13T04:06:58.342Z,0
2017-04-13T04:07:39.217Z,0
2017-04-13T04:08:20.091Z,0
2017-04-13T04:09:00.977Z,0
2017-04-13T04:09:41.850Z,0
2017-04-13T04:10:22.721Z,0
2017-04-13T04:11:03.594Z,0
2017-04-13T04:11:44.479Z,0
2017-04-13T04:12:25.356Z,5
2017-04-13T04:13:06.227Z,5
2017-04-13T04:13:47.107Z,5
2017-04-13T04:14:27.986Z,5
2017-04-13T04:15:08.868Z,5
2017-04-13T04:15:49.752Z,5
2017-04-13T04:16:30.635Z,5
2017-04-13T04:17:11.513Z,5
2017-04-13T04:17:52.401Z,5
2017-04-13T04:18:33.289Z,5
2017-04-13T04:19:14.214Z,5
2017-04-13T04:19:55.046Z,5
2017-04-13T04:20:35.928Z,5
2017-04-13T04:21:16.827Z,5
2017-04-13T04:21:57.739Z,5
2017-04-13T04:22:38.588Z,5
2017-04-13T04:23:19.469Z,10
2017-04-13T04:24:00.347Z,10
2017-04-13T04:24:41.216Z,10
2017-04-13T04:25:22.091Z,15
2017-04-13T04:26:02.970Z,15
2017-04-13T04:26:43.853Z,15
2017-04-13T04:27:24.723Z,15
2017-04-13T04:28:05.608Z,15
2017-04-13T04:28:46.484Z,15
2017-04-13T04:29:27.363Z,15
2017-04-13T04:30:08.242Z,15
2017-04-13T04:30:49.130Z,15
2017-04-13T04:31:30.005Z,20
2017-04-13T04:32:10.889Z,20
2017-04-13T04:32:51.770Z,20
2017-04-13T04:33:32.647Z,20
2017-04-13T04:34:13.526Z,20
2017-04-13T04:34:54.415Z,20
2017-04-13T04:35:35.323Z,20
2017-04-13T04:36:16.208Z,20
2017-04-13T04:36:57.083Z,20
2017-04-13T04:37:37.969Z,20
2017-04-13T04:38:18.854Z,20
2017-04-13T04:38:59.729Z,20
2017-04-13T04:39:40.616Z,20
2017-04-13T04:40:21.500Z,15
2017-04-13T04:41:02.389Z,15
2017-04-13T04:41:43.274Z,15
2017-04-13T04:42:24.150Z,20
2017-04-13T04:43:05.034Z,20
2017-04-13T04:43:45.913Z,20
2017-04-13T04:44:26.825Z,20
2017-04-13T04:45:07.710Z,20
2017-04-13T04:45:48.590Z,20
2017-04-13T04:46:29.473Z,25
2017-04-13T04:47:10.359Z,25
2017-04-13T04:47:51.243Z,20
2017-04-13T04:48:32.125Z,25
2017-04-13T04:49:13.005Z,30
2017-04-13T04:49:53.886Z,35
2017-04-13T04:50:34.764Z,35
2017-04-13T04:51:15.658Z,35
2017-04-13T04:51:56.527Z,40
2017-04-13T04:52:37.417Z,40
2017-04-13T04:53:18.301Z,45
2017-04-13T04:53:59.184Z,45
2017-04-13T04:54:40.058Z,45
2017-04-13T04:55:20.939Z,45
2017-04-13T04:56:01.852Z,45
2017-04-13T04:56:42.731Z,40
2017-04-13T04:57:23.617Z,50
2017-04-13T04:58:04.493Z,55
2017-04-13T04:58:45.380Z,50
2017-04-13T04:59:26.252Z,50
2017-04-13T05:00:07.137Z,50
2017-04-13T05:00:48.016Z,50
2017-04-13T05:01:28.896Z,45
2017-04-13T05:02:09.793Z,45
2017-04-13T05:02:50.667Z,50
2017-04-13T05:03:31.596Z,45
2017-04-13T05:04:12.474Z,40
2017-04-13T05:04:53.355Z,45
2017-04-13T05:05:34.236Z,55
2017-04-13T05:06:15.119Z,55
2017-04-13T05:06:56.009Z,55
2017-04-13T05:07:36.890Z,45
2017-04-13T05:08:17.784Z,40
2017-04-13T05:08:58.675Z,45
2017-04-13T05:09:39.560Z,50
2017-04-13T05:10:20.442Z,45
2017-04-13T05:11:01.321Z,40
2017-04-13T05:11:42.202Z,45
2017-04-13T05:12:23.076Z,50
2017-04-13T05:13:04.004Z,50
2017-04-13T05:13:44.892Z,50
2017-04-13T05:14:25.779Z,55
2017-04-13T05:15:06.665Z,70
2017-04-13T05:15:47.553Z,80
2017-04-13T05:16:28.433Z,90
2017-04-13T05:17:09.304Z,80
2017-04-13T05:17:50.186Z,85
2017-04-13T05:18:31.068Z,95
2017-04-13T05:19:11.946Z,105
2017-04-13T05:19:52.827Z,110
2017-04-13T05:20:33.719Z,75
2017-04-13T05:21:14.595Z,75
2017-04-13T05:21:55.482Z,100
2017-04-13T05:22:36.399Z,125
2017-04-13T05:23:17.236Z,120
2017-04-13T05:23:58.118Z,115
2017-04-13T05:24:38.997Z,100
2017-04-13T05:25:19.878Z,100
2017-04-13T05:26:00.751Z,90
2017-04-13T05:26:41.627Z,100
2017-04-13T05:27:22.502Z,95
2017-04-13T05:28:03.394Z,95
2017-04-13T05:28:44.276Z,100
2017-04-13T05:29:25.157Z,100
2017-04-13T05:30:06.036Z,100
2017-04-13T05:30:47.027Z,90
2017-04-13T05:31:27.908Z,100
2017-04-13T05:32:08.790Z,90
2017-04-13T05:32:49.678Z,95
2017-04-13T05:33:30.562Z,90
2017-04-13T05:34:11.440Z,95
2017-04-13T05:34:52.308Z,110
2017-04-13T05:35:33.193Z,100
2017-04-13T05:36:14.075Z,95
2017-04-13T05:36:54.956Z,105
2017-04-13T05:37:35.837Z,100
2017-04-13T05:38:16.747Z,95
2017-04-13T05:38:57.629Z,105
2017-04-13T05:39:38.512Z,110
2017-04-13T05:40:19.403Z,140
2017-04-13T05:41:00.283Z,90
2017-04-13T05:41:41.175Z,90
2017-04-13T05:42:22.054Z,105
2017-04-13T05:43:02.928Z,105
2017-04-13T05:43:43.813Z,110
2017-04-13T05:44:24.691Z,110
2017-04-13T05:45:05.569Z,105
2017-04-13T05:45:46.451Z,100
2017-04-13T05:46:27.339Z,110
2017-04-13T05:47:08.222Z,115
2017-04-13T05:49:22.318Z,105
2017-04-13T05:50:03.197Z,105
2017-04-13T05:50:44.078Z,100
2017-04-13T05:51:24.960Z,105
2017-04-13T05:52:05.839Z,110
2017-04-13T05:52:46.705Z,105
2017-04-13T05:53:27.590Z,105
2017-04-13T05:54:08.481Z,110
2017-04-13T05:54:49.361Z,110
2017-04-13T05:55:30.235Z,110
2017-04-13T05:56:11.119Z,110
2017-04-13T05:56:52.004Z,110
2017-04-13T05:57:32.881Z,110
2017-04-13T05:58:13.756Z,115
2017-04-13T05:58:54.630Z,115
2017-04-13T05:59:35.517Z,120
2017-04-13T06:00:16.395Z,115
2017-04-13T06:00:57.308Z,125
2017-04-13T06:01:38.196Z,120
2017-04-13T06:02:19.078Z,125
2017-04-13T06:02:59.961Z,125
2017-04-13T06:03:40.841Z,130
2017-04-13T06:04:21.721Z,145
2017-04-13T06:05:02.593Z,165
2017-04-13T06:05:43.481Z,175
2017-04-13T06:06:24.352Z,210
2017-04-13T06:07:05.232Z,245
2017-04-13T06:07:46.113Z,230
2017-04-13T06:08:27.003Z,215
2017-04-13T06:09:07.876Z,210
2017-04-13T06:09:48.754Z,200
2017-04-13T06:10:29.625Z,190
2017-04-13T06:11:10.509Z,175
2017-04-13T06:11:51.394Z,195
2017-04-13T06:12:32.289Z,190
2017-04-13T06:13:13.169Z,195
2017-04-13T06:13:54.034Z,205
2017-04-13T06:14:34.920Z,195
2017-04-13T06:15:15.799Z,165
2017-04-13T06:15:56.675Z,145
2017-04-13T06:16:37.549Z,140
2017-04-13T06:17:18.426Z,130
2017-04-13T06:17:59.301Z,125
2017-04-13T06:18:40.173Z,125
2017-04-13T06:19:21.049Z,130
2017-04-13T06:20:01.914Z,135
2017-04-13T06:20:42.794Z,145
2017-04-13T06:21:23.662Z,145
2017-04-13T06:22:04.549Z,140
2017-04-13T06:22:45.470Z,155
2017-04-13T06:23:26.341Z,180
2017-04-13T06:24:07.219Z,210
2017-04-13T06:24:48.096Z,185
2017-04-13T06:25:28.979Z,170
2017-04-13T06:26:09.864Z,170
2017-04-13T06:26:50.741Z,210
2017-04-13T06:27:31.629Z,195
2017-04-13T06:28:12.635Z,180
2017-04-13T06:28:53.502Z,155
2017-04-13T06:29:34.385Z,140
2017-04-13T06:30:15.292Z,150
2017-04-13T06:30:56.154Z,155
2017-04-13T06:31:37.033Z,150
2017-04-13T06:32:17.914Z,140
2017-04-13T06:32:58.803Z,145
2017-04-13T06:33:39.676Z,145
2017-04-13T06:34:20.553Z,145
2017-04-13T06:35:01.426Z,145
2017-04-13T06:35:42.311Z,150
2017-04-13T06:36:23.189Z,155
2017-04-13T06:37:04.069Z,150
2017-04-13T06:37:45.004Z,165
2017-04-13T06:38:25.927Z,150
2017-04-13T06:39:06.804Z,160
2017-04-13T06:39:47.686Z,180
2017-04-13T06:40:28.612Z,175
2017-04-13T06:41:09.484Z,185
2017-04-13T06:41:50.367Z,185
2017-04-13T06:42:31.243Z,180
2017-04-13T06:43:12.123Z,225
2017-04-13T06:43:53.005Z,235
2017-04-13T06:44:33.888Z,220
2017-04-13T06:45:14.776Z,245
2017-04-13T06:45:55.654Z,225
2017-04-13T06:46:36.531Z,210
2017-04-13T06:47:17.410Z,240
2017-04-13T06:47:58.299Z,230
2017-04-13T06:48:39.170Z,220
2017-04-13T06:49:20.067Z,280
2017-04-13T06:50:00.928Z,320
2017-04-13T06:50:41.807Z,285
2017-04-13T06:51:22.691Z,290
2017-04-13T06:52:03.566Z,290
2017-04-13T06:52:44.438Z,245
2017-04-13T06:53:25.326Z,195
2017-04-13T06:54:06.207Z,190
2017-04-13T06:54:47.084Z,190
2017-04-13T06:55:27.954Z,190
2017-04-13T06:56:08.831Z,235
2017-04-13T06:56:49.711Z,255
2017-04-13T06:57:30.597Z,220
2017-04-13T06:58:11.476Z,200
2017-04-13T06:58:52.361Z,200
2017-04-13T06:59:33.246Z,215
2017-04-13T07:01:47.378Z,205
2017-04-13T07:02:28.252Z,200
2017-04-13T07:03:09.131Z,220
2017-04-13T07:03:50.014Z,250
2017-04-13T07:04:30.893Z,230
2017-04-13T07:05:11.768Z,185
2017-04-13T07:05:52.690Z,270
2017-04-13T07:06:33.562Z,255
2017-04-13T07:07:14.437Z,225
2017-04-13T07:07:55.293Z,230
2017-04-13T07:08:36.170Z,190
2017-04-13T07:09:17.053Z,230
2017-04-13T07:09:57.934Z,255
2017-04-13T07:10:38.812Z,310
2017-04-13T07:11:19.682Z,290
2017-04-13T07:12:00.561Z,255
2017-04-13T07:12:41.435Z,205
2017-04-13T07:13:22.319Z,205
2017-04-13T07:14:03.202Z,255
2017-04-13T07:14:44.077Z,340
2017-04-13T07:15:24.957Z,360
2017-04-13T07:16:05.817Z,305
2017-04-13T07:16:46.698Z,215
2017-04-13T07:17:27.579Z,210
2017-04-13T07:18:08.457Z,225
2017-04-13T07:18:49.333Z,210
2017-04-13T07:19:30.206Z,245
2017-04-13T07:20:11.105Z,295
2017-04-13T07:20:51.985Z,335
2017-04-13T07:21:32.857Z,295
2017-04-13T07:22:13.718Z,285
2017-04-13T07:22:54.617Z,320
2017-04-13T07:23:35.501Z,400
2017-04-13T07:24:16.382Z,270
2017-04-13T07:24:57.263Z,200
2017-04-13T07:25:38.142Z,265
2017-04-13T07:26:19.026Z,280
2017-04-13T07:26:59.891Z,305
2017-04-13T07:27:40.756Z,295
2017-04-13T07:28:21.624Z,295
2017-04-13T07:29:02.497Z,315
2017-04-13T07:29:43.378Z,255
2017-04-13T07:30:24.258Z,290
2017-04-13T07:31:05.143Z,395
2017-04-13T07:31:46.027Z,380
2017-04-13T07:32:26.906Z,280
2017-04-13T07:33:07.813Z,205
2017-04-13T07:33:48.654Z,210
2017-04-13T07:34:29.532Z,270
2017-04-13T07:35:10.410Z,340
2017-04-13T07:35:51.289Z,360
2017-04-13T07:36:32.171Z,375
2017-04-13T07:37:13.048Z,360
2017-04-13T07:37:53.936Z,365
2017-04-13T07:38:34.819Z,345
2017-04-13T07:39:15.692Z,230
2017-04-13T07:39:56.573Z,230
2017-04-13T07:40:37.454Z,460
2017-04-13T07:41:18.376Z,550
2017-04-13T07:41:59.216Z,695
2017-04-13T07:42:40.126Z,945
2017-04-13T07:43:21.021Z,900
2017-04-13T07:44:01.899Z,755
2017-04-13T07:44:42.812Z,680
2017-04-13T07:45:23.695Z,575
2017-04-13T07:46:04.575Z,500
2017-04-13T07:46:45.476Z,400
2017-04-13T07:47:26.356Z,1000
2017-04-13T07:48:07.237Z,1350
2017-04-13T07:48:48.118Z,230
2017-04-13T07:49:29.000Z,305
2017-04-13T07:50:09.883Z,375
2017-04-13T07:50:50.769Z,1740
2017-04-13T07:51:31.646Z,1865
2017-04-13T07:52:12.551Z,410
2017-04-13T07:52:53.427Z,285
2017-04-13T07:53:34.311Z,200
2017-04-13T07:54:15.193Z,165
2017-04-13T07:54:56.072Z,200
2017-04-13T07:55:36.946Z,205
2017-04-13T07:56:17.859Z,285
2017-04-13T07:56:58.754Z,380
2017-04-13T07:57:39.637Z,470
2017-04-13T07:58:20.499Z,760
2017-04-13T07:59:01.376Z,345
2017-04-13T07:59:42.257Z,260
2017-04-13T08:00:23.141Z,210
2017-04-13T08:01:04.027Z,290
2017-04-13T08:01:44.906Z,970
2017-04-13T08:02:25.779Z,145
2017-04-13T08:03:06.658Z,135
2017-04-13T08:03:47.546Z,195
2017-04-13T08:04:28.425Z,305
2017-04-13T08:05:09.306Z,260
2017-04-13T08:05:50.235Z,1185
2017-04-13T08:06:31.084Z,130
2017-04-13T08:07:11.957Z,145
2017-04-13T08:07:52.842Z,180
2017-04-13T08:08:33.726Z,225
2017-04-13T08:09:14.619Z,195
2017-04-13T08:09:55.495Z,145
2017-04-13T08:10:36.392Z,155
2017-04-13T08:11:17.278Z,245
2017-04-13T08:11:58.154Z,380
2017-04-13T08:12:39.034Z,795
2017-04-13T08:13:19.912Z,355
2017-04-13T08:14:00.792Z,360
2017-04-13T08:14:41.677Z,845
2017-04-13T08:15:22.611Z,90
2017-04-13T08:16:03.494Z,80
2017-04-13T08:16:44.365Z,95
2017-04-13T08:17:25.240Z,80
2017-04-13T08:18:06.116Z,75
2017-04-13T08:18:47.006Z,95
2017-04-13T08:19:27.888Z,130
2017-04-13T08:20:08.761Z,225
2017-04-13T08:20:49.628Z,320
2017-04-13T08:21:30.508Z,340
2017-04-13T08:22:11.391Z,405
2017-04-13T08:22:52.317Z,1360
2017-04-13T08:23:33.208Z,340
2017-04-13T08:24:14.120Z,490
2017-04-13T08:24:54.979Z,915
2017-04-13T08:25:35.882Z,1760
2017-04-13T08:26:16.766Z,1605
2017-04-13T08:28:36.032Z,270
2017-04-13T08:29:16.912Z,255
2017-04-13T08:29:57.785Z,255
2017-04-13T08:30:38.662Z,195
2017-04-13T08:31:19.541Z,175
2017-04-13T08:32:00.421Z,195
2017-04-13T08:32:41.306Z,310
2017-04-13T08:33:22.192Z,240
2017-04-13T08:34:03.075Z,1120
2017-04-13T08:34:43.951Z,1470
2017-04-13T08:35:24.828Z,1705
2017-04-13T08:36:05.712Z,1540
2017-04-13T08:36:46.593Z,2185
2017-04-13T08:37:27.472Z,2225
2017-04-13T08:38:08.353Z,2125
2017-04-13T08:38:49.235Z,2160
2017-04-13T08:39:30.121Z,520
2017-04-13T08:40:11.007Z,2035
2017-04-13T08:40:51.889Z,1980
2017-04-13T08:41:32.768Z,1920
2017-04-13T08:42:13.663Z,710
2017-04-13T08:42:54.548Z,295
2017-04-13T08:43:35.433Z,255
2017-04-13T08:44:16.317Z,250
2017-04-13T08:44:57.201Z,190
2017-04-13T08:45:38.087Z,145
2017-04-13T08:46:18.965Z,115
2017-04-13T08:46:59.850Z,120
2017-04-13T08:47:40.748Z,120
2017-04-13T08:48:21.625Z,125
2017-04-13T08:49:02.528Z,125
2017-04-13T08:49:43.396Z,140
2017-04-13T08:50:24.276Z,175
2017-04-13T08:51:05.170Z,260
2017-04-13T08:51:46.043Z,320
2017-04-13T08:52:26.921Z,1005
2017-04-13T08:53:07.824Z,385
2017-04-13T08:53:48.705Z,465
2017-04-13T08:54:29.599Z,1530
2017-04-13T08:55:10.491Z,2465
2017-04-13T08:55:51.367Z,840
2017-04-13T08:56:32.249Z,925
2017-04-13T08:57:13.139Z,2020
2017-04-13T08:57:54.015Z,1090
2017-04-13T08:58:34.898Z,1515
2017-04-13T08:59:15.781Z,860
2017-04-13T08:59:56.666Z,640
2017-04-13T09:00:37.553Z,575
2017-04-13T09:01:18.438Z,620
2017-04-13T09:01:59.313Z,505
2017-04-13T09:02:40.200Z,365
2017-04-13T09:03:21.082Z,415
2017-04-13T09:04:01.962Z,415
2017-04-13T09:04:42.844Z,500
2017-04-13T09:05:23.723Z,365
2017-04-13T09:06:04.604Z,545
2017-04-13T09:06:45.495Z,435
2017-04-13T09:07:26.375Z,600
2017-04-13T09:08:07.259Z,560
2017-04-13T09:08:48.138Z,470
2017-04-13T09:09:29.026Z,575
2017-04-13T09:10:09.907Z,435
2017-04-13T09:10:50.790Z,575
2017-04-13T09:11:31.672Z,345
2017-04-13T09:12:12.582Z,465
2017-04-13T09:12:53.517Z,465
2017-04-13T09:13:34.391Z,495
2017-04-13T09:14:15.299Z,520
2017-04-13T09:14:56.231Z,485
2017-04-13T09:15:37.110Z,335
2017-04-13T09:16:17.994Z,255
2017-04-13T09:16:58.881Z,235
2017-04-13T09:17:39.767Z,230
2017-04-13T09:18:20.647Z,210
2017-04-13T09:19:01.530Z,185
2017-04-13T09:19:42.489Z,185
2017-04-13T09:20:23.447Z,215
2017-04-13T09:21:04.332Z,245
2017-04-13T09:21:45.219Z,290
2017-04-13T09:22:26.104Z,350
2017-04-13T09:23:06.988Z,350
2017-04-13T09:23:47.866Z,500
2017-04-13T09:24:28.752Z,280
2017-04-13T09:25:09.632Z,205
2017-04-13T09:25:50.520Z,155
2017-04-13T09:26:31.402Z,155
2017-04-13T09:27:12.283Z,175
2017-04-13T09:27:53.164Z,230
2017-04-13T09:28:34.045Z,270
2017-04-13T09:29:14.930Z,345
2017-04-13T09:29:55.812Z,440
2017-04-13T09:30:36.697Z,2875
2017-04-13T09:31:17.623Z,1890
2017-04-13T09:31:58.491Z,2545
2017-04-13T09:32:39.374Z,2115
2017-04-13T09:33:20.255Z,2780
2017-04-13T09:34:01.139Z,2790
2017-04-13T09:34:42.058Z,2790
2017-04-13T09:35:22.937Z,360
2017-04-13T09:36:03.813Z,355
2017-04-13T09:36:44.696Z,395
2017-04-13T09:37:25.585Z,345
2017-04-13T09:38:06.467Z,305
2017-04-13T09:38:47.357Z,310
2017-04-13T09:39:28.236Z,320
2017-04-13T09:40:09.143Z,345
2017-04-13T09:40:50.030Z,350
2017-04-13T09:41:30.923Z,320
2017-04-13T09:42:11.795Z,310
2017-04-13T09:42:52.685Z,260
2017-04-13T09:43:33.564Z,255
2017-04-13T09:44:14.441Z,315
2017-04-13T09:44:55.355Z,1370
2017-04-13T09:45:36.237Z,250
2017-04-13T09:46:17.121Z,185
2017-04-13T09:46:58.004Z,150
2017-04-13T09:47:38.876Z,170
2017-04-13T09:48:19.768Z,220
2017-04-13T09:49:00.642Z,300
2017-04-13T09:49:41.524Z,395